UKV6596 AYNZ-AYHX
Flight info
| Callsign | UKV6596 |
|---|---|
| Flight time | 0h 33m |
| Altitude | 1000 |
| Route | DCT |
| Aircraft | C208/L-V/N |
Departure
| Time | 2026-05-09 17:08 |
|---|---|
| Airport | Nadzab Tomodachi International Airport (AYNZ) |
Arrival
| Time | 2026-05-09 17:42 |
|---|---|
| Airport | Herowena Airstrip (AYHX) |
| Time | Latitude | Longitude | Altitude | Speed | Heading |
|---|---|---|---|---|---|
| 2026-05-09 16:45 | -6.56594 | 146.72918 | 232 ft | 0 kts | 46° |
| 2026-05-09 16:59 | -6.56593 | 146.72944 | 226 ft | 0 kts | 244° |
| 2026-05-09 16:59 | -6.56594 | 146.72918 | 232 ft | 0 kts | 46° |
| 2026-05-09 17:04 | -6.56599 | 146.72930 | 232 ft | 4 kts | 158° |
| 2026-05-09 17:05 | -6.56657 | 146.72922 | 232 ft | 11 kts | 155° |
| 2026-05-09 17:05 | -6.56684 | 146.73001 | 232 ft | 18 kts | 97° |
| 2026-05-09 17:05 | -6.56694 | 146.73104 | 232 ft | 12 kts | 110° |
| 2026-05-09 17:05 | -6.56755 | 146.73136 | 232 ft | 9 kts | 181° |
| 2026-05-09 17:06 | -6.56794 | 146.73132 | 232 ft | 8 kts | 183° |
| 2026-05-09 17:06 | -6.56831 | 146.73164 | 232 ft | 13 kts | 97° |
| 2026-05-09 17:06 | -6.56840 | 146.73325 | 232 ft | 21 kts | 94° |
| 2026-05-09 17:06 | -6.56861 | 146.73555 | 232 ft | 31 kts | 94° |
| 2026-05-09 17:07 | -6.56913 | 146.73718 | 232 ft | 18 kts | 154° |
| 2026-05-09 17:07 | -6.56983 | 146.73720 | 232 ft | 14 kts | 174° |
| 2026-05-09 17:07 | -6.57072 | 146.73661 | 233 ft | 11 kts | 271° |
| 2026-05-09 17:07 | -6.57070 | 146.73642 | 233 ft | 14 kts | 274° |
| 2026-05-09 17:08 | -6.57044 | 146.73179 | 240 ft | 105 kts | 277° |
| 2026-05-09 17:08 | -6.56920 | 146.71787 | 1111 ft | 98 kts | 275° |
| 2026-05-09 17:08 | -6.56879 | 146.71095 | 1487 ft | 99 kts | 265° |
| 2026-05-09 17:09 | -6.56944 | 146.70396 | 1897 ft | 112 kts | 265° |
| 2026-05-09 17:09 | -6.56990 | 146.69543 | 2134 ft | 131 kts | 267° |
| 2026-05-09 17:09 | -6.57029 | 146.68594 | 2362 ft | 140 kts | 267° |
| 2026-05-09 17:09 | -6.57068 | 146.67596 | 2576 ft | 147 kts | 268° |
| 2026-05-09 17:10 | -6.57106 | 146.66551 | 2831 ft | 150 kts | 268° |
| 2026-05-09 17:10 | -6.57144 | 146.65500 | 3083 ft | 151 kts | 268° |
| 2026-05-09 17:10 | -6.57184 | 146.64444 | 3333 ft | 152 kts | 268° |
| 2026-05-09 17:10 | -6.57225 | 146.63381 | 3577 ft | 152 kts | 268° |
| 2026-05-09 17:11 | -6.57265 | 146.62318 | 3834 ft | 152 kts | 267° |
| 2026-05-09 17:11 | -6.57305 | 146.61258 | 4083 ft | 151 kts | 268° |
| 2026-05-09 17:11 | -6.57344 | 146.60201 | 4334 ft | 151 kts | 268° |
| 2026-05-09 17:11 | -6.57385 | 146.59147 | 4584 ft | 151 kts | 268° |
| 2026-05-09 17:12 | -6.57424 | 146.58094 | 4837 ft | 151 kts | 268° |
| 2026-05-09 17:12 | -6.57465 | 146.57039 | 5085 ft | 151 kts | 268° |
| 2026-05-09 17:12 | -6.57504 | 146.55983 | 5336 ft | 151 kts | 268° |
| 2026-05-09 17:12 | -6.57545 | 146.54929 | 5583 ft | 151 kts | 268° |
| 2026-05-09 17:13 | -6.57583 | 146.53872 | 5836 ft | 151 kts | 268° |
| 2026-05-09 17:13 | -6.57623 | 146.52836 | 6082 ft | 151 kts | 268° |
| 2026-05-09 17:13 | -6.57663 | 146.51778 | 6333 ft | 150 kts | 268° |
| 2026-05-09 17:13 | -6.57703 | 146.50730 | 6581 ft | 150 kts | 268° |
| 2026-05-09 17:14 | -6.57742 | 146.49682 | 6833 ft | 150 kts | 268° |
| 2026-05-09 17:14 | -6.57781 | 146.48632 | 7083 ft | 150 kts | 268° |
| 2026-05-09 17:14 | -6.57821 | 146.47582 | 7333 ft | 150 kts | 268° |
| 2026-05-09 17:14 | -6.57860 | 146.46534 | 7583 ft | 150 kts | 268° |
| 2026-05-09 17:15 | -6.57901 | 146.45486 | 7832 ft | 150 kts | 268° |
| 2026-05-09 17:15 | -6.57939 | 146.44441 | 8084 ft | 150 kts | 268° |
| 2026-05-09 17:15 | -6.57979 | 146.43389 | 8335 ft | 150 kts | 268° |
| 2026-05-09 17:15 | -6.58019 | 146.42339 | 8551 ft | 152 kts | 268° |
| 2026-05-09 17:16 | -6.58059 | 146.41264 | 8734 ft | 156 kts | 268° |
| 2026-05-09 17:17 | -6.58326 | 146.34201 | 9989 ft | 149 kts | 268° |
| 2026-05-09 17:18 | -6.58365 | 146.33091 | 10000 ft | 167 kts | 268° |
| 2026-05-09 17:18 | -6.58408 | 146.31886 | 10003 ft | 177 kts | 268° |
| 2026-05-09 17:18 | -6.58454 | 146.30625 | 10006 ft | 183 kts | 268° |
| 2026-05-09 17:18 | -6.58503 | 146.29329 | 10010 ft | 187 kts | 268° |
| 2026-05-09 17:19 | -6.58551 | 146.28015 | 10008 ft | 189 kts | 268° |
| 2026-05-09 17:19 | -6.58600 | 146.26690 | 10008 ft | 190 kts | 268° |
| 2026-05-09 17:19 | -6.58649 | 146.25372 | 10012 ft | 187 kts | 268° |
| 2026-05-09 17:19 | -6.58697 | 146.24073 | 10006 ft | 184 kts | 268° |
| 2026-05-09 17:20 | -6.58745 | 146.22789 | 10004 ft | 183 kts | 268° |
| 2026-05-09 17:20 | -6.58792 | 146.21514 | 10005 ft | 182 kts | 268° |
| 2026-05-09 17:20 | -6.58839 | 146.20240 | 10006 ft | 182 kts | 268° |
| 2026-05-09 17:20 | -6.58887 | 146.18967 | 10010 ft | 182 kts | 268° |
| 2026-05-09 17:21 | -6.58933 | 146.17694 | 10011 ft | 182 kts | 268° |
| 2026-05-09 17:21 | -6.58981 | 146.16426 | 10010 ft | 182 kts | 268° |
| 2026-05-09 17:21 | -6.59027 | 146.15158 | 10011 ft | 182 kts | 268° |
| 2026-05-09 17:21 | -6.59075 | 146.13891 | 10010 ft | 181 kts | 268° |
| 2026-05-09 17:22 | -6.59122 | 146.12620 | 10006 ft | 182 kts | 268° |
| 2026-05-09 17:22 | -6.59168 | 146.11348 | 10011 ft | 182 kts | 268° |
| 2026-05-09 17:22 | -6.59216 | 146.10074 | 10004 ft | 184 kts | 268° |
| 2026-05-09 17:22 | -6.59263 | 146.08790 | 10001 ft | 183 kts | 268° |
| 2026-05-09 17:23 | -6.59310 | 146.07514 | 10007 ft | 182 kts | 268° |
| 2026-05-09 17:23 | -6.59357 | 146.06242 | 9999 ft | 182 kts | 268° |
| 2026-05-09 17:23 | -6.59403 | 146.04972 | 10001 ft | 181 kts | 268° |
| 2026-05-09 17:23 | -6.59451 | 146.03708 | 10000 ft | 181 kts | 268° |
| 2026-05-09 17:25 | -6.59681 | 145.97394 | 10004 ft | 180 kts | 268° |
| 2026-05-09 17:25 | -6.59727 | 145.96133 | 10003 ft | 180 kts | 268° |
| 2026-05-09 17:25 | -6.59774 | 145.94874 | 10009 ft | 180 kts | 268° |
| 2026-05-09 17:25 | -6.59819 | 145.93613 | 10004 ft | 181 kts | 268° |
| 2026-05-09 17:26 | -6.59866 | 145.92354 | 10005 ft | 181 kts | 268° |
| 2026-05-09 17:26 | -6.59912 | 145.91084 | 10006 ft | 181 kts | 268° |
| 2026-05-09 17:26 | -6.59959 | 145.89818 | 10011 ft | 181 kts | 268° |
| 2026-05-09 17:26 | -6.60004 | 145.88553 | 10005 ft | 181 kts | 268° |
| 2026-05-09 17:27 | -6.60050 | 145.87287 | 10011 ft | 181 kts | 268° |
| 2026-05-09 17:27 | -6.60097 | 145.86022 | 10010 ft | 182 kts | 268° |
| 2026-05-09 17:27 | -6.60143 | 145.84747 | 10007 ft | 182 kts | 268° |
| 2026-05-09 17:27 | -6.60189 | 145.83481 | 10007 ft | 181 kts | 268° |
| 2026-05-09 17:28 | -6.60235 | 145.82213 | 10010 ft | 181 kts | 268° |
| 2026-05-09 17:28 | -6.60280 | 145.80941 | 10002 ft | 183 kts | 268° |
| 2026-05-09 17:28 | -6.60327 | 145.79697 | 9999 ft | 182 kts | 268° |
| 2026-05-09 17:28 | -6.60373 | 145.78424 | 10000 ft | 182 kts | 268° |
| 2026-05-09 17:29 | -6.60420 | 145.77155 | 10004 ft | 181 kts | 268° |
| 2026-05-09 17:29 | -6.60465 | 145.75893 | 10002 ft | 181 kts | 268° |
| 2026-05-09 17:29 | -6.60510 | 145.74627 | 9999 ft | 181 kts | 268° |
| 2026-05-09 17:29 | -6.60556 | 145.73367 | 10001 ft | 180 kts | 268° |
| 2026-05-09 17:30 | -6.60601 | 145.72106 | 9998 ft | 181 kts | 268° |
| 2026-05-09 17:30 | -6.60647 | 145.70845 | 9998 ft | 181 kts | 268° |
| 2026-05-09 17:30 | -6.60693 | 145.69580 | 9998 ft | 181 kts | 268° |
| 2026-05-09 17:30 | -6.60738 | 145.68315 | 9997 ft | 181 kts | 268° |
| 2026-05-09 17:31 | -6.60785 | 145.67054 | 9999 ft | 181 kts | 268° |
| 2026-05-09 17:31 | -6.60829 | 145.65791 | 10000 ft | 180 kts | 268° |
| 2026-05-09 17:32 | -6.61008 | 145.60825 | 10007 ft | 180 kts | 268° |
| 2026-05-09 17:32 | -6.61053 | 145.59565 | 10002 ft | 180 kts | 268° |
| 2026-05-09 17:32 | -6.61100 | 145.58302 | 10003 ft | 180 kts | 268° |
| 2026-05-09 17:33 | -6.61144 | 145.57039 | 10005 ft | 181 kts | 268° |
| 2026-05-09 17:33 | -6.61189 | 145.55779 | 10005 ft | 181 kts | 268° |
| 2026-05-09 17:33 | -6.61232 | 145.54551 | 10004 ft | 181 kts | 268° |
| 2026-05-09 17:33 | -6.61277 | 145.53285 | 10006 ft | 182 kts | 269° |
| 2026-05-09 17:34 | -6.61322 | 145.52013 | 10009 ft | 182 kts | 268° |
| 2026-05-09 17:35 | -6.61594 | 145.44420 | 10008 ft | 181 kts | 269° |
| 2026-05-09 17:35 | -6.61638 | 145.43156 | 10006 ft | 181 kts | 268° |
| 2026-05-09 17:36 | -6.61684 | 145.41883 | 9937 ft | 185 kts | 269° |
| 2026-05-09 17:36 | -6.61730 | 145.40579 | 9817 ft | 188 kts | 268° |
| 2026-05-09 17:36 | -6.61775 | 145.39254 | 9693 ft | 190 kts | 268° |
| 2026-05-09 17:36 | -6.61762 | 145.37918 | 9570 ft | 191 kts | 274° |
| 2026-05-09 17:37 | -6.61507 | 145.36612 | 9455 ft | 191 kts | 288° |
| 2026-05-09 17:37 | -6.61167 | 145.35317 | 9326 ft | 192 kts | 282° |
| 2026-05-09 17:37 | -6.60910 | 145.33992 | 9142 ft | 195 kts | 282° |
| 2026-05-09 17:37 | -6.60701 | 145.32633 | 8888 ft | 198 kts | 276° |
| 2026-05-09 17:38 | -6.60601 | 145.31260 | 8634 ft | 196 kts | 272° |
| 2026-05-09 17:38 | -6.60620 | 145.29914 | 8511 ft | 190 kts | 269° |
| 2026-05-09 17:38 | -6.60666 | 145.28597 | 8385 ft | 187 kts | 268° |
| 2026-05-09 17:39 | -6.61497 | 145.26273 | 7378 ft | 181 kts | 237° |
| 2026-05-09 17:39 | -6.62184 | 145.25183 | 6750 ft | 188 kts | 243° |
| 2026-05-09 17:39 | -6.62420 | 145.23907 | 6279 ft | 184 kts | 270° |
| 2026-05-09 17:39 | -6.62390 | 145.22760 | 6094 ft | 152 kts | 271° |
| 2026-05-09 17:40 | -6.62399 | 145.21719 | 6059 ft | 144 kts | 269° |
| 2026-05-09 17:40 | -6.62428 | 145.20742 | 6053 ft | 136 kts | 268° |
| 2026-05-09 17:40 | -6.62785 | 145.19904 | 5549 ft | 141 kts | 209° |
| 2026-05-09 17:40 | -6.63635 | 145.19556 | 5286 ft | 116 kts | 204° |
| 2026-05-09 17:41 | -6.64226 | 145.19701 | 5215 ft | 98 kts | 110° |
| 2026-05-09 17:41 | -6.63844 | 145.20140 | 5056 ft | 92 kts | 359° |
| 2026-05-09 17:41 | -6.63287 | 145.19987 | 4989 ft | 85 kts | 343° |
| 2026-05-09 17:41 | -6.62697 | 145.19825 | 4834 ft | 89 kts | 347° |
| 2026-05-09 17:42 | -6.62159 | 145.19717 | 4709 ft | 44 kts | 349° |
| 2026-05-09 17:42 | -6.62002 | 145.19681 | 4712 ft | 10 kts | 313° |
| 2026-05-09 17:42 | -6.61983 | 145.19673 | 4712 ft | 0 kts | 31° |
| 2026-05-09 17:43 | -6.61982 | 145.19673 | 4712 ft | 2 kts | 34° |
| 2026-05-09 17:43 | -6.61988 | 145.19666 | 4712 ft | 4 kts | 169° |
| 2026-05-09 17:43 | -6.61991 | 145.19666 | 4712 ft | 0 kts | 167° |